Time;durP1;ratioP1;P1;durP2;ratioP2;P2;SDS_P1;SDS_P2;PMS_P1;PMS_P2;Temp;Humidity;BMP_temperature;BMP_pressure;BME280_temperature;BME280_humidity;BME280_pressure;Samples;Min_cycle;Max_cycle;Signal;HPM_P1;HPM_P2
2021/12/04 00:00:46;;;;;;;;;;;;;;;5.26;76.03;99947.91;5068317;28;19926;-61
2021/12/04 00:03:12;;;;;;;;;;;;;;;5.23;75.67;99942.91;5071830;28;19920;-61
2021/12/04 00:05:40;;;;;;;;;;;;;;;5.22;75.57;99937.63;5053323;28;20414;-61
2021/12/04 00:08:05;;;;;;;;;;;;;;;5.24;75.49;99944.56;5069844;28;19916;-61
2021/12/04 00:10:31;;;;;;;;;;;;;;;5.26;75.60;99936.06;5072454;28;20429;-61
2021/12/04 00:12:56;;;;;;;;;;;;;;;5.27;74.97;99927.59;5073615;28;19916;-61
2021/12/04 00:15:22;;;;;;;;;;;;;;;5.28;75.51;99915.50;5056932;28;19920;-61
2021/12/04 00:17:47;;;;;;;;;;;;;;;5.30;75.14;99912.50;5068549;28;20287;-61
2021/12/04 00:20:12;;;;;;;;;;;;;;;5.29;75.46;99906.16;5065144;28;19916;-61
2021/12/04 00:22:38;;;;;;;;;;;;;;;5.30;75.23;99912.50;5059749;28;19977;-61
2021/12/04 00:25:05;;;;;;;;;;;;;;;5.32;75.30;99907.59;5057418;28;20272;-61
2021/12/04 00:27:30;;;;;;;;;;;;;;;5.29;75.54;99908.09;5053786;28;19928;-61
2021/12/04 00:29:57;;;;;;;;;;;;;;;5.29;75.18;99905.34;5063365;28;19913;-61
2021/12/04 00:32:33;;;;;;;;;;;;;;;5.30;75.63;99904.25;5065050;28;19920;-61
2021/12/04 00:35:10;;;;;;;;;;;;;;;5.31;75.33;99898.50;5070480;28;20003;-62
2021/12/04 00:37:53;;;;;;;;;;;;;;;5.34;75.62;99899.94;5072377;28;19927;-62
2021/12/04 00:43:22;;;;;;;;;;;;;;;5.37;75.14;99886.53;5052602;28;20308;-62
2021/12/04 00:51:24;;;;;;;;;;;;;;;5.40;74.93;99879.72;5045686;28;20399;-61
2021/12/04 00:53:54;;;;;;;;;;;;;;;5.38;75.32;99882.72;5060770;28;19960;-61
2021/12/04 00:56:19;;;;;;;;;;;;;;;5.38;75.50;99879.97;5066004;28;20034;-61
2021/12/04 00:58:44;;;;;;;;;;;;;;;5.37;75.35;99877.44;5057252;28;20431;-61
2021/12/04 01:01:09;;;;;;;;;;;;;;;5.36;75.37;99887.63;5076593;28;19920;-61
2021/12/04 01:03:35;;;;;;;;;;;;;;;5.36;75.49;99884.03;5061477;28;20023;-62
2021/12/04 01:06:00;;;;;;;;;;;;;;;5.38;75.16;99881.84;5071477;28;19927;-62
2021/12/04 01:08:25;;;;;;;;;;;;;;;5.37;75.74;99880.19;5074996;28;19928;-61
2021/12/04 01:10:50;;;;;;;;;;;;;;;5.37;75.31;99878.28;5074367;28;20023;-61
2021/12/04 01:13:16;;;;;;;;;;;;;;;5.39;75.48;99886.31;5069615;28;20364;-61
2021/12/04 01:15:42;;;;;;;;;;;;;;;5.38;75.40;99888.22;5060137;28;20010;-62
2021/12/04 01:18:07;;;;;;;;;;;;;;;5.39;75.53;99889.88;5072940;28;20054;-61
2021/12/04 01:20:32;;;;;;;;;;;;;;;5.38;75.55;99887.34;5075114;28;20421;-61
2021/12/04 01:22:57;;;;;;;;;;;;;;;5.35;75.39;99890.63;5075492;28;19921;-61
2021/12/04 01:25:22;;;;;;;;;;;;;;;5.34;75.96;99887.00;5063440;28;20019;-62
2021/12/04 01:27:48;;;;;;;;;;;;;;;5.31;75.48;99892.19;5056420;28;19917;-61
2021/12/04 01:30:13;;;;;;;;;;;;;;;5.33;75.34;99888.09;5056666;28;19967;-61
2021/12/04 01:32:39;;;;;;;;;;;;;;;5.36;75.61;99878.53;5064585;28;19924;-61
2021/12/04 01:35:04;;;;;;;;;;;;;;;5.37;75.88;99874.69;5060461;28;19921;-61
2021/12/04 01:37:29;;;;;;;;;;;;;;;5.38;75.98;99879.09;5058501;28;19960;-61
2021/12/04 01:39:55;;;;;;;;;;;;;;;5.40;75.70;99872.28;5074290;28;19939;-61
2021/12/04 01:42:21;;;;;;;;;;;;;;;5.41;75.44;99873.13;5075352;28;20366;-61
2021/12/04 01:44:49;;;;;;;;;;;;;;;5.45;75.46;99881.72;5059948;28;20372;-61
2021/12/04 01:47:16;;;;;;;;;;;;;;;5.45;75.31;99878.97;5055743;28;19928;-61
2021/12/04 01:49:41;;;;;;;;;;;;;;;5.45;75.38;99877.06;5063900;28;19920;-61
2021/12/04 01:52:07;;;;;;;;;;;;;;;5.46;75.55;99870.47;5066278;28;19927;-61
2021/12/04 01:54:33;;;;;;;;;;;;;;;5.47;75.22;99869.41;5074638;28;19917;-61
2021/12/04 01:56:58;;;;;;;;;;;;;;;5.48;75.21;99861.97;5062631;28;19947;-61
2021/12/04 01:59:23;;;;;;;;;;;;;;;5.48;75.32;99862.81;5075895;28;19969;-61
2021/12/04 02:01:48;;;;;;;;;;;;;;;5.50;75.45;99870.81;5062801;28;19959;-61
2021/12/04 02:04:14;;;;;;;;;;;;;;;5.49;75.21;99867.22;5055253;28;19967;-60
2021/12/04 02:06:39;;;;;;;;;;;;;;;5.49;75.46;99867.22;5070981;28;20371;-61
2021/12/04 02:09:04;;;;;;;;;;;;;;;5.50;75.32;99859.81;5055122;28;19967;-61
2021/12/04 02:11:29;;;;;;;;;;;;;;;5.51;75.64;99854.06;5055714;28;19952;-61
2021/12/04 02:13:54;;;;;;;;;;;;;;;5.52;75.80;99850.22;5059152;28;19916;-61
2021/12/04 02:16:21;;;;;;;;;;;;;;;5.54;75.57;99838.97;5061430;28;19927;-61
2021/12/04 02:18:46;;;;;;;;;;;;;;;5.54;75.40;99827.97;5073463;28;19916;-61
2021/12/04 02:21:12;;;;;;;;;;;;;;;5.55;75.76;99824.16;5054594;28;20415;-61
2021/12/04 02:23:38;;;;;;;;;;;;;;;5.56;75.06;99821.13;5055011;28;19916;-61
2021/12/04 02:26:03;;;;;;;;;;;;;;;5.57;75.25;99816.47;5073442;28;19921;-61
2021/12/04 02:28:28;;;;;;;;;;;;;;;5.54;75.86;99806.81;5066535;28;20296;-61
2021/12/04 02:30:53;;;;;;;;;;;;;;;5.51;75.64;99806.47;5061780;28;20315;-61
2021/12/04 02:33:20;;;;;;;;;;;;;;;5.51;75.29;99806.47;5063346;28;19917;-61
2021/12/04 02:35:50;;;;;;;;;;;;;;;5.49;75.27;99792.91;5068720;28;19920;-61
2021/12/04 02:38:15;;;;;;;;;;;;;;;5.49;75.46;99792.91;5074832;28;19924;-61
2021/12/04 02:40:43;;;;;;;;;;;;;;;5.49;75.49;99787.41;5068928;28;19925;-61
2021/12/04 02:43:09;;;;;;;;;;;;;;;5.51;75.29;99785.25;5063099;28;19932;-61
2021/12/04 02:45:34;;;;;;;;;;;;;;;5.52;75.19;99791.59;5073408;28;19921;-61
2021/12/04 02:47:59;;;;;;;;;;;;;;;5.52;75.42;99784.19;5055381;28;19923;-61
2021/12/04 02:50:24;;;;;;;;;;;;;;;5.53;75.26;99783.09;5063510;28;19921;-61
2021/12/04 02:52:50;;;;;;;;;;;;;;;5.55;75.33;99780.09;5073786;28;20005;-61
2021/12/04 02:55:17;;;;;;;;;;;;;;;5.57;75.65;99788.94;5064957;28;19959;-61
2021/12/04 02:57:44;;;;;;;;;;;;;;;5.56;75.16;99793.63;5067124;28;19921;-61
2021/12/04 03:00:12;;;;;;;;;;;;;;;5.57;75.36;99789.78;5060582;28;19921;-61
2021/12/04 03:02:38;;;;;;;;;;;;;;;5.56;75.47;99788.09;5071676;28;20007;-61
2021/12/04 03:05:08;;;;;;;;;;;;;;;5.55;75.52;99788.38;5053594;28;20011;-61
2021/12/04 03:07:33;;;;;;;;;;;;;;;5.56;75.45;99784.53;5063845;28;19924;-61
2021/12/04 03:09:58;;;;;;;;;;;;;;;5.55;75.39;99780.94;5069315;28;20406;-61
2021/12/04 03:12:24;;;;;;;;;;;;;;;5.57;75.18;99777.94;5073519;28;20368;-61
2021/12/04 03:14:50;;;;;;;;;;;;;;;5.57;75.14;99770.50;5060942;28;19920;-61
2021/12/04 03:17:18;;;;;;;;;;;;;;;5.58;75.06;99769.44;5067222;28;19916;-61
2021/12/04 03:19:44;;;;;;;;;;;;;;;5.58;75.15;99772.19;5060403;28;19978;-61
2021/12/04 03:22:09;;;;;;;;;;;;;;;5.59;75.40;99764.78;5059586;28;19921;-61
2021/12/04 03:24:38;;;;;;;;;;;;;;;5.60;75.65;99767.25;5061249;28;19921;-61
2021/12/04 03:27:03;;;;;;;;;;;;;;;5.61;75.22;99773.59;5068358;28;20417;-62
2021/12/04 03:29:31;;;;;;;;;;;;;;;5.61;75.29;99757.09;5059701;28;19928;-62
2021/12/04 03:40:21;;;;;;;;;;;;;;;5.60;75.18;99759.00;5072889;28;19962;-61
2021/12/04 03:42:46;;;;;;;;;;;;;;;5.60;75.11;99755.41;5057604;28;19924;-61
2021/12/04 03:45:12;;;;;;;;;;;;;;;5.61;75.26;99746.06;5071094;28;19932;-61
2021/12/04 03:47:44;;;;;;;;;;;;;;;5.61;74.98;99749.66;5066991;28;19974;-61
2021/12/04 03:50:09;;;;;;;;;;;;;;;5.62;74.89;99740.34;5054059;28;19924;-61
2021/12/04 03:52:36;;;;;;;;;;;;;;;5.62;74.92;99732.06;5063083;28;19965;-61
2021/12/04 03:55:03;;;;;;;;;;;;;;;5.62;75.13;99737.59;5073269;28;19955;-61
2021/12/04 03:57:29;;;;;;;;;;;;;;;5.63;74.96;99728.22;5053644;28;20376;-61
2021/12/04 03:59:54;;;;;;;;;;;;;;;5.65;74.83;99730.72;5065257;28;19927;-61
2021/12/04 04:02:19;;;;;;;;;;;;;;;5.64;75.25;99735.41;5055635;28;20000;-61
2021/12/04 04:04:44;;;;;;;;;;;;;;;5.65;75.48;99741.75;5073220;28;19920;-62
2021/12/04 04:07:10;;;;;;;;;;;;;;;5.65;75.25;99742.56;5056004;28;19916;-61
2021/12/04 04:09:35;;;;;;;;;;;;;;;5.66;74.70;99732.41;5053857;28;19921;-61
2021/12/04 04:12:00;;;;;;;;;;;;;;;5.66;75.08;99727.75;5053561;28;19978;-61
2021/12/04 04:14:26;;;;;;;;;;;;;;;5.64;74.71;99729.91;5063511;28;19970;-61
2021/12/04 04:16:53;;;;;;;;;;;;;;;5.62;74.92;99715.56;5062085;28;19921;-61
2021/12/04 04:19:19;;;;;;;;;;;;;;;5.63;75.23;99728.22;5061586;28;19931;-62
2021/12/04 04:21:44;;;;;;;;;;;;;;;5.63;75.23;99710.88;5070085;28;19924;-61
2021/12/04 04:24:10;;;;;;;;;;;;;;;5.63;75.55;99703.47;5073236;28;19963;-61
2021/12/04 04:26:36;;;;;;;;;;;;;;;5.65;75.02;99700.44;5061069;28;20007;-61
2021/12/04 04:29:02;;;;;;;;;;;;;;;5.66;75.20;99705.72;5055108;28;19974;-61
2021/12/04 04:31:28;;;;;;;;;;;;;;;5.67;74.66;99701.03;5059287;28;20069;-61
2021/12/04 04:34:00;;;;;;;;;;;;;;;5.68;74.74;99705.47;5076475;28;19946;-61
2021/12/04 04:36:45;;;;;;;;;;;;;;;5.68;74.92;99697.19;5072466;28;19920;-61
2021/12/04 04:58:48;;;;;;;;;;;;;;;5.68;74.64;99688.94;5070168;28;19932;-61
2021/12/04 05:12:01;;;;;;;;;;;;;;;5.69;75.29;99687.03;5074340;28;20271;-61
2021/12/04 05:14:26;;;;;;;;;;;;;;;5.70;74.73;99674.91;5073447;28;20015;-61
2021/12/04 05:16:59;;;;;;;;;;;;;;;5.68;75.11;99669.66;5066795;28;19960;-61
2021/12/04 05:19:37;;;;;;;;;;;;;;;5.69;75.18;99659.50;5075768;28;19979;-61
2021/12/04 05:22:03;;;;;;;;;;;;;;;5.69;75.11;99665.81;5068585;28;19920;-61
2021/12/04 05:24:28;;;;;;;;;;;;;;;5.70;74.70;99662.00;5056621;28;20027;-61
2021/12/04 05:26:53;;;;;;;;;;;;;;;5.71;75.28;99671.09;5074161;28;20372;-61
2021/12/04 05:29:18;;;;;;;;;;;;;;;5.73;74.83;99674.41;5074072;28;19928;-61
2021/12/04 05:31:44;;;;;;;;;;;;;;;5.74;75.11;99673.34;5065921;28;19929;-61
2021/12/04 05:34:09;;;;;;;;;;;;;;;5.75;74.76;99669.50;5075268;28;19920;-61
2021/12/04 05:36:34;;;;;;;;;;;;;;;5.77;75.31;99672.84;5075986;28;19916;-61
2021/12/04 05:38:59;;;;;;;;;;;;;;;5.78;75.11;99674.53;5062171;28;19921;-61
2021/12/04 05:41:25;;;;;;;;;;;;;;;5.79;75.11;99673.44;5073829;28;19920;-61
2021/12/04 05:43:50;;;;;;;;;;;;;;;5.77;75.11;99664.56;5072372;28;20012;-61
2021/12/04 05:46:18;;;;;;;;;;;;;;;5.78;75.15;99671.78;5069935;28;19952;-61
2021/12/04 05:56:15;;;;;;;;;;;;;;;5.79;75.00;99662.41;5061798;28;20011;-61
2021/12/04 05:58:41;;;;;;;;;;;;;;;5.76;74.70;99651.91;5060967;28;19920;-61
2021/12/04 06:01:06;;;;;;;;;;;;;;;5.75;74.74;99659.34;5062593;28;19966;-61
2021/12/04 06:03:32;;;;;;;;;;;;;;;5.76;75.25;99660.16;5074798;28;19920;-61
2021/12/04 06:05:58;;;;;;;;;;;;;;;5.76;74.82;99657.41;5062517;28;19921;-61
2021/12/04 06:08:23;;;;;;;;;;;;;;;5.76;74.92;99651.91;5074543;28;20292;-61
2021/12/04 06:10:49;;;;;;;;;;;;;;;5.75;75.15;99656.56;5075422;28;19920;-61
2021/12/04 06:13:14;;;;;;;;;;;;;;;5.75;75.23;99650.25;5057127;28;20357;-61
2021/12/04 06:15:40;;;;;;;;;;;;;;;5.74;74.74;99648.56;5067115;28;20257;-61
2021/12/04 06:18:05;;;;;;;;;;;;;;;5.74;74.78;99643.91;5062669;28;19921;-61
2021/12/04 06:23:14;;;;;;;;;;;;;;;5.77;75.16;99651.63;5069103;28;19927;-60
2021/12/04 06:25:39;;;;;;;;;;;;;;;5.78;75.23;99644.25;5066751;28;20023;-62
2021/12/04 06:28:05;;;;;;;;;;;;;;;5.79;75.11;99643.16;5071404;28;19920;-62
2021/12/04 06:30:36;;;;;;;;;;;;;;;5.80;74.82;99640.13;5075269;28;19917;-62
2021/12/04 06:33:03;;;;;;;;;;;;;;;5.80;74.72;99645.63;5067326;28;19921;-61
2021/12/04 06:35:28;;;;;;;;;;;;;;;5.79;74.68;99655.00;5053982;28;19924;-61
2021/12/04 06:37:54;;;;;;;;;;;;;;;5.80;75.08;99653.06;5071093;28;19924;-62
2021/12/04 06:40:23;;;;;;;;;;;;;;;5.79;75.06;99651.41;5066373;28;19956;-62
2021/12/04 06:42:49;;;;;;;;;;;;;;;5.79;74.54;99651.41;5054380;28;19928;-62
2021/12/04 06:45:14;;;;;;;;;;;;;;;5.80;74.78;99651.16;5067948;28;19920;-61
2021/12/04 06:47:46;;;;;;;;;;;;;;;5.81;75.11;99652.81;5066934;28;19924;-61
2021/12/04 06:50:18;;;;;;;;;;;;;;;5.81;75.20;99657.47;5070073;28;20000;-61
2021/12/04 06:52:46;;;;;;;;;;;;;;;5.81;74.86;99649.22;5074349;28;19917;-62
2021/12/04 06:55:14;;;;;;;;;;;;;;;5.81;74.98;99658.31;5069459;28;19924;-61
2021/12/04 06:57:40;;;;;;;;;;;;;;;5.81;74.81;99652.81;5072525;28;20355;-62
2021/12/04 07:00:06;;;;;;;;;;;;;;;5.82;74.81;99660.00;5059374;28;20338;-61
2021/12/04 07:02:32;;;;;;;;;;;;;;;5.83;75.42;99660.84;5056972;28;20761;-61
2021/12/04 07:04:57;;;;;;;;;;;;;;;5.83;75.15;99661.66;5060973;28;19927;-61
2021/12/04 07:07:22;;;;;;;;;;;;;;;5.85;75.27;99664.16;5065889;28;19920;-61
2021/12/04 07:09:47;;;;;;;;;;;;;;;5.85;75.32;99662.22;5073315;28;19920;-61
2021/12/04 07:12:13;;;;;;;;;;;;;;;5.84;75.03;99659.75;5073249;28;19982;-61
2021/12/04 07:14:38;;;;;;;;;;;;;;;5.84;75.04;99660.56;5071979;28;19978;-61
2021/12/04 07:17:04;;;;;;;;;;;;;;;5.86;74.70;99652.06;5058836;28;20372;-61
2021/12/04 07:19:30;;;;;;;;;;;;;;;5.87;75.14;99656.50;5064359;28;19921;-61
2021/12/04 07:21:55;;;;;;;;;;;;;;;5.86;74.84;99646.56;5073130;28;21769;-61
2021/12/04 07:24:21;;;;;;;;;;;;;;;5.85;75.28;99650.38;5071715;28;19920;-61
2021/12/04 07:26:46;;;;;;;;;;;;;;;5.87;75.20;99651.81;5069258;28;20007;-60
2021/12/04 07:29:11;;;;;;;;;;;;;;;5.86;75.33;99655.66;5073821;28;19963;-61
2021/12/04 07:31:40;;;;;;;;;;;;;;;5.87;75.09;99646.31;5077495;28;19920;-61
2021/12/04 07:34:05;;;;;;;;;;;;;;;5.88;75.25;99653.47;5073744;28;19979;-61
2021/12/04 07:36:31;;;;;;;;;;;;;;;5.86;74.58;99644.66;5072505;28;20339;-61
2021/12/04 07:38:56;;;;;;;;;;;;;;;5.86;75.21;99652.06;5063905;28;19921;-61
2021/12/04 07:41:21;;;;;;;;;;;;;;;5.87;75.04;99654.56;5070475;28;20929;-61
2021/12/04 07:43:47;;;;;;;;;;;;;;;5.88;74.90;99647.13;5069595;28;19969;-61
2021/12/04 07:46:12;;;;;;;;;;;;;;;5.88;75.34;99636.13;5067103;28;20272;-61
2021/12/04 07:48:37;;;;;;;;;;;;;;;5.89;75.25;99638.63;5053470;28;19927;-61
2021/12/04 07:51:02;;;;;;;;;;;;;;;5.91;74.87;99638.38;5065009;28;20389;-61
2021/12/04 07:53:29;;;;;;;;;;;;;;;5.93;74.90;99638.16;5062057;28;20435;-61
2021/12/04 07:55:54;;;;;;;;;;;;;;;5.94;74.94;99635.16;5065891;28;19928;-61
2021/12/04 07:58:20;;;;;;;;;;;;;;;5.96;74.79;99641.22;5072112;28;20374;-61
2021/12/04 08:00:45;;;;;;;;;;;;;;;5.93;75.35;99630.72;5072352;28;19978;-61
2021/12/04 08:03:11;;;;;;;;;;;;;;;5.93;75.18;99624.38;5065480;28;19982;-61
2021/12/04 08:05:36;;;;;;;;;;;;;;;5.93;74.80;99627.97;5057453;28;19974;-61
2021/12/04 08:08:02;;;;;;;;;;;;;;;5.96;75.15;99621.13;5060470;28;19920;-61
2021/12/04 08:10:28;;;;;;;;;;;;;;;5.93;74.90;99627.97;5068415;28;19928;-61
2021/12/04 08:12:53;;;;;;;;;;;;;;;5.94;74.90;99631.56;5066967;28;19932;-61
2021/12/04 08:15:18;;;;;;;;;;;;;;;5.93;74.79;99618.88;5063186;28;19932;-61
2021/12/04 08:17:44;;;;;;;;;;;;;;;5.91;74.61;99617.19;5066392;28;20011;-61
2021/12/04 08:20:16;;;;;;;;;;;;;;;5.92;75.29;99609.78;5064413;28;20024;-62
2021/12/04 08:22:41;;;;;;;;;;;;;;;5.97;75.12;99609.00;5065742;28;20390;-61
2021/12/04 08:25:07;;;;;;;;;;;;;;;5.99;74.99;99604.94;5061330;28;19921;-61
2021/12/04 08:27:32;;;;;;;;;;;;;;;6.01;75.62;99605.53;5070691;28;20367;-61
2021/12/04 08:29:57;;;;;;;;;;;;;;;6.01;75.17;99597.25;5064859;28;19916;-61
2021/12/04 08:32:23;;;;;;;;;;;;;;;6.01;75.38;99591.75;5069100;28;19935;-61
2021/12/04 08:34:49;;;;;;;;;;;;;;;6.01;75.36;99580.72;5068386;28;19921;-60
2021/12/04 08:37:14;;;;;;;;;;;;;;;6.02;75.13;99587.91;5066827;28;19916;-60
2021/12/04 08:39:39;;;;;;;;;;;;;;;6.04;74.94;99585.69;5066756;28;20028;-61
2021/12/04 08:42:04;;;;;;;;;;;;;;;6.03;75.41;99584.03;5061837;28;19920;-61
2021/12/04 08:44:30;;;;;;;;;;;;;;;6.03;75.56;99573.03;5064653;28;19921;-62
2021/12/04 08:46:55;;;;;;;;;;;;;;;6.04;75.07;99585.69;5062523;28;20316;-61
2021/12/04 08:49:21;;;;;;;;;;;;;;;6.02;74.99;99574.13;5060650;28;19921;-61
2021/12/04 08:51:46;;;;;;;;;;;;;;;6.00;75.38;99568.03;5063741;28;19924;-61
2021/12/04 08:54:11;;;;;;;;;;;;;;;6.01;75.04;99564.19;5061068;28;19921;-62
2021/12/04 08:56:37;;;;;;;;;;;;;;;6.01;74.99;99564.19;5065083;28;19948;-61
2021/12/04 08:59:03;;;;;;;;;;;;;;;6.03;74.96;99561.19;5064271;28;19921;-61
2021/12/04 09:01:31;;;;;;;;;;;;;;;6.03;75.32;99561.19;5066438;28;19920;-61
2021/12/04 09:03:58;;;;;;;;;;;;;;;6.04;75.28;99569.19;5058026;28;19921;-61
2021/12/04 09:06:24;;;;;;;;;;;;;;;6.04;75.40;99571.94;5065748;28;19927;-60
2021/12/04 09:08:49;;;;;;;;;;;;;;;6.04;75.31;99574.69;5070591;28;19920;-61
2021/12/04 09:11:17;;;;;;;;;;;;;;;6.03;74.80;99573.03;5055745;28;19996;-61
2021/12/04 09:13:43;;;;;;;;;;;;;;;6.06;75.55;99566.19;5065868;28;19920;-61
2021/12/04 09:16:09;;;;;;;;;;;;;;;6.07;74.96;99568.69;5068605;28;19924;-61
2021/12/04 09:18:35;;;;;;;;;;;;;;;6.07;75.07;99568.69;5058401;28;20389;-61
2021/12/04 09:21:01;;;;;;;;;;;;;;;6.09;74.95;99551.88;5072176;28;19920;-61
2021/12/04 09:23:33;;;;;;;;;;;;;;;6.09;75.52;99549.97;5067949;28;19928;-61
2021/12/04 09:26:01;;;;;;;;;;;;;;;6.11;75.11;99547.78;5070730;28;19998;-60
2021/12/04 09:28:37;;;;;;;;;;;;;;;6.13;75.31;99545.63;5061349;28;19921;-60
2021/12/04 09:34:03;;;;;;;;;;;;;;;6.19;75.44;99559.47;5069813;28;19920;-60
2021/12/04 10:03:49;;;;;;;;;;;;;;;6.21;75.32;99529.72;5069770;28;19929;-60
2021/12/04 10:06:35;;;;;;;;;;;;;;;6.21;74.98;99540.72;5067486;28;20090;-60
2021/12/04 10:12:06;;;;;;;;;;;;;;;6.20;75.01;99528.06;5067624;28;19927;-59
2021/12/04 10:21:01;;;;;;;;;;;;;;;6.25;74.88;99525.34;5068061;28;19943;-61
2021/12/04 10:32:06;;;;;;;;;;;;;;;6.25;74.52;99519.84;5066738;28;20303;-60
2021/12/04 10:33:47;;;;;;;;;;;;;;;6.22;75.31;99490.91;5068013;28;20375;-61
2021/12/04 10:36:24;;;;;;;;;;;;;;;6.23;75.52;99478.78;5066000;28;19929;-61
2021/12/04 10:38:50;;;;;;;;;;;;;;;6.25;75.56;99484.03;5069478;28;19987;-61
2021/12/04 10:41:16;;;;;;;;;;;;;;;6.27;75.20;99487.38;5061927;28;20360;-69
2021/12/04 10:43:41;;;;;;;;;;;;;;;6.27;75.68;99481.84;5063619;28;19928;-62
2021/12/04 10:46:15;;;;;;;;;;;;;;;6.27;75.50;99466.16;5057825;28;19921;-61
2021/12/04 10:48:49;;;;;;;;;;;;;;;6.28;75.61;99467.81;5068447;28;19955;-63
2021/12/04 10:51:27;;;;;;;;;;;;;;;6.29;75.34;99471.41;5065543;28;19950;-61
2021/12/04 10:53:56;;;;;;;;;;;;;;;6.30;75.24;99462.06;5064304;28;19920;-61
2021/12/04 10:57:31;;;;;;;;;;;;;;;6.32;75.55;99459.84;5065523;28;19925;-61
2021/12/04 11:02:00;;;;;;;;;;;;;;;6.35;75.25;99440.88;5065198;28;19935;-60
2021/12/04 11:04:36;;;;;;;;;;;;;;;6.36;75.45;99436.19;5068520;28;20368;-61
2021/12/04 11:07:35;;;;;;;;;;;;;;;6.38;75.29;99434.03;5070571;28;19967;-60
2021/12/04 11:21:32;;;;;;;;;;;;;;;6.53;74.49;99417.66;5065861;28;20041;-61
2021/12/04 11:24:26;;;;;;;;;;;;;;;6.52;74.65;99409.63;5066929;28;19928;-62
2021/12/04 11:41:15;;;;;;;;;;;;;;;6.52;74.63;99404.09;5026049;28;20009;-63
2021/12/04 11:44:28;;;;;;;;;;;;;;;6.51;74.98;99400.53;5065381;28;19927;-63
2021/12/04 11:47:08;;;;;;;;;;;;;;;6.51;74.92;99394.19;5060201;28;19971;-63
2021/12/04 11:49:30;;;;;;;;;;;;;;;6.50;75.28;99393.34;5071345;28;20261;-62
2021/12/04 11:51:59;;;;;;;;;;;;;;;6.50;74.67;99382.31;5067110;28;20304;-62
2021/12/04 11:54:29;;;;;;;;;;;;;;;6.50;75.66;99376.81;5073961;28;19921;-61
2021/12/04 11:57:04;;;;;;;;;;;;;;;6.52;74.85;99388.38;5080726;28;20007;-61
2021/12/04 11:59:29;;;;;;;;;;;;;;;6.52;75.37;99377.38;5079237;28;19924;-61
2021/12/04 12:01:56;;;;;;;;;;;;;;;6.52;74.91;99382.06;5064807;28;19932;-61
2021/12/04 12:04:33;;;;;;;;;;;;;;;6.56;77.01;99378.53;5074518;28;19928;-61
2021/12/04 12:07:08;;;;;;;;;;;;;;;6.68;75.33;99377.50;5070771;28;20411;-62
2021/12/04 12:09:35;;;;;;;;;;;;;;;6.67;75.07;99378.59;5059455;28;19924;-60
2021/12/04 12:12:02;;;;;;;;;;;;;;;6.68;75.42;99369.22;5081653;28;19920;-60
2021/12/04 12:14:38;;;;;;;;;;;;;;;6.67;75.03;99373.09;5075183;28;20008;-60
2021/12/04 12:17:04;;;;;;;;;;;;;;;6.67;74.86;99373.09;5083137;28;19920;-60
2021/12/04 12:19:35;;;;;;;;;;;;;;;6.68;75.55;99367.31;5071331;28;20409;-60
2021/12/04 12:22:04;;;;;;;;;;;;;;;6.67;75.40;99367.56;5062641;28;19921;-60
2021/12/04 12:38:39;;;;;;;;;;;;;;;6.60;75.07;99357.63;5062790;28;19947;-63
2021/12/04 12:41:11;;;;;;;;;;;;;;;6.58;75.97;99373.56;5060890;28;19927;-61
2021/12/04 12:43:38;;;;;;;;;;;;;;;6.60;75.63;99378.81;5058712;28;20043;-61
2021/12/04 12:46:04;;;;;;;;;;;;;;;6.59;75.09;99377.97;5065122;28;20570;-61
2021/12/04 12:48:29;;;;;;;;;;;;;;;6.61;75.61;99372.22;5064391;28;19924;-65
2021/12/04 12:51:04;;;;;;;;;;;;;;;6.62;75.08;99374.69;5070263;28;19982;-61
2021/12/04 12:53:30;;;;;;;;;;;;;;;6.62;75.95;99374.69;5066411;28;19925;-61
2021/12/04 12:56:06;;;;;;;;;;;;;;;6.62;75.18;99368.38;5069851;28;19921;-61
2021/12/04 12:59:21;;;;;;;;;;;;;;;6.63;75.41;99362.56;5070401;28;19924;-61
2021/12/04 13:12:41;;;;;;;;;;;;;;;6.67;75.77;99351.03;5063071;28;19967;-62
2021/12/04 13:15:07;;;;;;;;;;;;;;;6.68;75.58;99347.16;5066966;28;19929;-62
2021/12/04 13:17:32;;;;;;;;;;;;;;;6.69;76.66;99346.09;5068600;28;20437;-62
2021/12/04 13:19:58;;;;;;;;;;;;;;;6.71;75.40;99354.91;5065009;28;19951;-63
2021/12/04 13:22:25;;;;;;;;;;;;;;;6.74;75.59;99355.22;5064643;28;19921;-62
2021/12/04 13:24:51;;;;;;;;;;;;;;;6.76;75.51;99349.44;5065922;28;20356;-63
2021/12/04 13:29:42;;;;;;;;;;;;;;;6.74;75.57;99352.47;5071823;28;19920;-63
2021/12/04 13:32:09;;;;;;;;;;;;;;;6.75;76.44;99351.34;5067459;28;19951;-62
2021/12/04 13:34:36;;;;;;;;;;;;;;;6.76;76.44;99343.91;5068403;28;19967;-62
2021/12/04 13:37:02;;;;;;;;;;;;;;;6.75;76.09;99350.53;5069852;28;20387;-63
2021/12/04 13:39:27;;;;;;;;;;;;;;;6.73;76.46;99345.28;5065170;28;19961;-62
2021/12/04 13:41:53;;;;;;;;;;;;;;;6.74;75.98;99341.44;5065826;28;19927;-63
2021/12/04 13:44:20;;;;;;;;;;;;;;;6.74;76.02;99346.94;5066402;28;19964;-62
2021/12/04 13:46:47;;;;;;;;;;;;;;;6.74;76.35;99352.47;5062912;28;19959;-61
2021/12/04 13:49:22;;;;;;;;;;;;;;;6.74;75.94;99343.38;5065792;28;19932;-63
2021/12/04 13:51:51;;;;;;;;;;;;;;;6.75;76.04;99347.78;5069786;28;19968;-62
2021/12/04 13:54:17;;;;;;;;;;;;;;;6.76;76.24;99352.19;5068604;28;19921;-62
2021/12/04 13:56:43;;;;;;;;;;;;;;;6.75;75.73;99351.34;5068368;28;20338;-62
2021/12/04 13:59:10;;;;;;;;;;;;;;;6.77;76.08;99348.34;5064807;28;19928;-62
2021/12/04 14:01:41;;;;;;;;;;;;;;;6.77;75.69;99345.59;5068939;28;19973;-62
2021/12/04 14:04:08;;;;;;;;;;;;;;;6.77;75.81;99338.16;5062404;28;20444;-63
2021/12/04 14:06:33;;;;;;;;;;;;;;;6.79;75.84;99337.88;5070229;28;19921;-61
2021/12/04 14:09:06;;;;;;;;;;;;;;;6.80;76.18;99339.56;5070452;28;19935;-61
2021/12/04 14:11:33;;;;;;;;;;;;;;;6.78;76.44;99344.50;5065926;28;20259;-63
2021/12/04 14:13:58;;;;;;;;;;;;;;;6.76;75.62;99343.91;5063265;28;19924;-61
2021/12/04 14:16:25;;;;;;;;;;;;;;;6.77;76.12;99346.44;5067774;28;19920;-61
2021/12/04 14:18:50;;;;;;;;;;;;;;;6.79;76.05;99352.50;5067120;28;19920;-62
2021/12/04 14:21:15;;;;;;;;;;;;;;;6.79;75.93;99354.41;5066238;28;20011;-62
2021/12/04 14:23:41;;;;;;;;;;;;;;;6.76;75.77;99350.28;5065295;28;19920;-62
2021/12/04 14:26:06;;;;;;;;;;;;;;;6.72;76.56;99353.81;5068607;28;19927;-61
2021/12/04 14:28:34;;;;;;;;;;;;;;;6.71;76.33;99363.19;5066986;28;19963;-61
2021/12/04 14:30:59;;;;;;;;;;;;;;;6.74;76.82;99362.66;5070301;28;19931;-61
2021/12/04 14:33:24;;;;;;;;;;;;;;;6.74;76.46;99370.94;5064358;28;19920;-62
2021/12/04 14:35:51;;;;;;;;;;;;;;;6.74;76.30;99368.19;5069687;28;19924;-61
2021/12/04 14:38:18;;;;;;;;;;;;;;;6.75;77.01;99380.88;5069304;28;20398;-60
2021/12/04 14:40:45;;;;;;;;;;;;;;;6.74;76.52;99390.25;5067471;28;19921;-61
2021/12/04 14:43:12;;;;;;;;;;;;;;;6.76;76.90;99390.78;5066927;28;20397;-60
2021/12/04 14:45:39;;;;;;;;;;;;;;;6.79;76.02;99395.78;5069345;28;19924;-61
2021/12/04 14:48:06;;;;;;;;;;;;;;;6.78;76.67;99391.38;5066993;28;19974;-61
2021/12/04 14:50:35;;;;;;;;;;;;;;;6.76;76.62;99405.44;5066758;28;19924;-61
2021/12/04 14:53:02;;;;;;;;;;;;;;;6.77;76.81;99401.56;5068981;28;19959;-61
2021/12/04 14:55:28;;;;;;;;;;;;;;;6.91;77.66;99404.69;5063297;28;19946;-62
2021/12/04 14:57:54;;;;;;;;;;;;;;;6.99;76.70;99414.41;5067114;28;19975;-61
2021/12/04 15:00:21;;;;;;;;;;;;;;;6.98;76.73;99418.28;5078320;28;19956;-60
2021/12/04 15:03:12;;;;;;;;;;;;;;;6.98;76.37;99426.56;5070702;28;19924;-61
2021/12/04 15:05:40;;;;;;;;;;;;;;;7.14;77.90;99437.41;5066437;28;20447;-62
2021/12/04 15:08:13;;;;;;;;;;;;;;;7.29;77.30;99431.19;5077764;28;19921;-60
2021/12/04 15:10:39;;;;;;;;;;;;;;;7.30;76.29;99437.53;5070035;28;19918;-61
2021/12/04 15:13:05;;;;;;;;;;;;;;;7.25;75.66;99440.25;5072488;28;19920;-61
2021/12/04 15:15:32;;;;;;;;;;;;;;;7.21;76.66;99434.44;5064017;28;20055;-62
2021/12/04 15:18:10;;;;;;;;;;;;;;;7.17;75.97;99435.25;5074559;28;20395;-63
2021/12/04 15:20:41;;;;;;;;;;;;;;;7.13;75.62;99449.56;5059462;28;19928;-60
2021/12/04 15:23:08;;;;;;;;;;;;;;;7.09;75.56;99445.69;5069307;28;20383;-61
2021/12/04 15:25:36;;;;;;;;;;;;;;;7.07;75.85;99456.16;5080051;28;19951;-62
2021/12/04 15:28:13;;;;;;;;;;;;;;;7.06;75.82;99464.69;5064951;28;19924;-62
2021/12/04 15:30:42;;;;;;;;;;;;;;;7.02;75.52;99464.38;5074961;28;19928;-66
2021/12/04 15:33:07;;;;;;;;;;;;;;;7.01;76.00;99468.25;5072722;28;19920;-64
2021/12/04 15:35:40;;;;;;;;;;;;;;;6.98;75.60;99474.28;5064812;28;19935;-65
2021/12/04 15:38:16;;;;;;;;;;;;;;;6.98;75.54;99477.03;5080615;28;19921;-64
2021/12/04 15:43:34;;;;;;;;;;;;;;;6.94;75.58;99486.94;5073815;28;19920;-62